createdAt,value
2023-03-26T00:01:46.659Z,10.73
2023-03-26T00:04:14.615Z,9.99
2023-03-26T00:06:42.433Z,11.18
2023-03-26T00:09:13.267Z,10.88
2023-03-26T00:11:41.699Z,10.45
2023-03-26T00:14:13.986Z,10.73
2023-03-26T00:16:44.822Z,11.05
2023-03-26T00:19:12.822Z,11.43
2023-03-26T00:21:41.446Z,11.36
2023-03-26T00:24:15.117Z,11.20
2023-03-26T00:26:43.385Z,11.12
2023-03-26T00:29:13.757Z,10.95
2023-03-26T00:31:46.541Z,11.29
2023-03-26T00:34:18.349Z,11.08
2023-03-26T00:36:47.195Z,11.30
2023-03-26T00:39:15.271Z,11.43
2023-03-26T00:41:43.277Z,11.14
2023-03-26T00:44:11.536Z,11.19
2023-03-26T00:46:39.459Z,11.55
2023-03-26T00:49:11.064Z,11.68
2023-03-26T00:51:39.531Z,11.90
2023-03-26T00:54:08.215Z,11.75
2023-03-26T00:56:36.127Z,11.35
2023-03-26T00:59:04.040Z,11.59
2023-03-26T01:01:32.395Z,10.76
2023-03-26T01:04:28.357Z,11.18
2023-03-26T01:07:02.807Z,11.27
2023-03-26T01:09:45.703Z,10.67
2023-03-26T01:12:17.166Z,10.76
2023-03-26T01:14:46.551Z,10.55
2023-03-26T01:17:14.600Z,10.13
2023-03-26T01:19:45.351Z,10.25
2023-03-26T01:22:19.276Z,10.32
2023-03-26T01:24:53.045Z,10.01
2023-03-26T01:27:46.838Z,9.23
2023-03-26T01:30:41.634Z,9.92
2023-03-26T01:33:34.080Z,9.49
2023-03-26T01:36:13.262Z,9.46
2023-03-26T01:39:00.672Z,9.47
2023-03-26T01:41:45.316Z,9.60
2023-03-26T01:44:22.245Z,9.60
2023-03-26T01:46:50.241Z,10.00
2023-03-26T01:49:18.248Z,9.94
2023-03-26T01:51:45.943Z,9.97
2023-03-26T01:54:17.057Z,9.95
2023-03-26T01:56:51.035Z,9.48
2023-03-26T01:59:32.890Z,9.30
2023-03-26T02:02:19.383Z,9.52
2023-03-26T02:04:53.198Z,9.44
2023-03-26T02:07:28.796Z,9.39
2023-03-26T02:09:59.545Z,9.76
2023-03-26T02:12:27.222Z,9.76
2023-03-26T02:14:55.067Z,9.56
2023-03-26T02:17:24.341Z,9.57
2023-03-26T02:19:52.360Z,9.79
2023-03-26T02:22:21.056Z,9.81
2023-03-26T02:24:48.830Z,10.32
2023-03-26T02:27:18.492Z,10.21
2023-03-26T02:29:47.752Z,10.13
2023-03-26T02:32:15.749Z,9.85
2023-03-26T02:34:43.516Z,9.35
2023-03-26T02:37:11.277Z,9.91
2023-03-26T02:39:42.386Z,10.21
2023-03-26T02:42:22.644Z,10.37
2023-03-26T02:44:51.274Z,10.59
2023-03-26T02:47:19.142Z,10.39
2023-03-26T02:49:52.748Z,10.85
2023-03-26T02:52:40.705Z,10.67
2023-03-26T02:55:08.817Z,10.29
2023-03-26T02:57:37.682Z,9.74
2023-03-26T03:00:17.096Z,9.90
2023-03-26T03:03:04.599Z,9.99
2023-03-26T03:05:32.875Z,10.31
2023-03-26T03:08:21.915Z,8.98
2023-03-26T03:11:22.201Z,8.17
2023-03-26T03:13:51.399Z,8.26
2023-03-26T03:16:30.672Z,8.66
2023-03-26T03:19:02.963Z,8.59
2023-03-26T03:21:38.786Z,8.37
2023-03-26T03:24:08.046Z,8.40
2023-03-26T03:26:42.346Z,8.05
2023-03-26T03:29:21.830Z,8.14
2023-03-26T03:31:50.509Z,8.82
2023-03-26T03:34:34.176Z,9.22
2023-03-26T03:37:01.962Z,9.25
2023-03-26T03:39:36.216Z,9.67
2023-03-26T03:42:04.816Z,8.93
2023-03-26T03:44:33.283Z,9.45
2023-03-26T03:47:03.706Z,9.78
2023-03-26T03:49:31.694Z,10.03
2023-03-26T03:51:59.474Z,9.88
2023-03-26T03:54:33.809Z,9.26
2023-03-26T03:57:27.045Z,9.33
2023-03-26T04:00:00.534Z,9.07
2023-03-26T04:02:34.909Z,10.12
2023-03-26T04:05:06.400Z,10.29
2023-03-26T04:07:35.704Z,9.74
2023-03-26T04:10:07.673Z,10.02
2023-03-26T04:13:11.936Z,10.12
2023-03-26T04:16:05.728Z,10.18
2023-03-26T04:18:33.642Z,10.25
2023-03-26T04:21:09.028Z,10.25
2023-03-26T04:23:36.734Z,10.04
2023-03-26T04:26:16.821Z,9.55
2023-03-26T04:29:05.724Z,9.84
2023-03-26T04:31:36.275Z,10.19
2023-03-26T04:34:13.653Z,10.20
2023-03-26T04:36:56.040Z,10.34
2023-03-26T04:39:29.131Z,10.36
2023-03-26T04:42:19.975Z,10.21
2023-03-26T04:45:03.071Z,9.98
2023-03-26T04:47:31.888Z,10.18
2023-03-26T04:49:59.851Z,10.02
2023-03-26T04:52:27.677Z,9.76
2023-03-26T04:54:58.324Z,9.78
2023-03-26T04:57:38.863Z,10.05
2023-03-26T05:00:21.402Z,10.05
2023-03-26T05:02:56.292Z,9.86
2023-03-26T05:05:25.718Z,9.68
2023-03-26T05:07:54.713Z,10.01
2023-03-26T05:10:22.538Z,10.24
2023-03-26T05:13:02.786Z,10.07
2023-03-26T05:15:34.970Z,10.19
2023-03-26T05:18:34.912Z,10.13
2023-03-26T05:21:04.041Z,10.25
2023-03-26T05:23:32.512Z,10.15
2023-03-26T05:26:33.142Z,10.34
2023-03-26T05:29:02.971Z,9.19
2023-03-26T05:31:36.193Z,9.92
2023-03-26T05:34:04.897Z,9.98
2023-03-26T05:36:32.780Z,9.97
2023-03-26T05:39:26.895Z,10.37
2023-03-26T05:41:57.437Z,10.53
2023-03-26T05:44:33.650Z,10.82
2023-03-26T05:47:05.176Z,10.86
2023-03-26T05:49:33.930Z,11.11
2023-03-26T05:52:02.229Z,11.36
2023-03-26T05:54:55.719Z,11.57
2023-03-26T06:00:38.709Z,11.85
2023-03-26T06:03:12.878Z,11.74
2023-03-26T06:05:59.464Z,12.09
2023-03-26T06:08:41.241Z,12.38
2023-03-26T06:11:12.615Z,12.03
2023-03-26T06:13:40.558Z,11.77
2023-03-26T06:16:09.744Z,12.07
2023-03-26T06:19:17.516Z,12.15
2023-03-26T06:22:04.673Z,11.95
2023-03-26T06:24:41.441Z,11.92
2023-03-26T06:27:32.284Z,11.77
2023-03-26T06:30:19.042Z,11.86
2023-03-26T06:33:16.017Z,12.34
2023-03-26T06:35:48.613Z,11.56
2023-03-26T06:38:17.452Z,11.88
2023-03-26T06:40:45.461Z,12.07
2023-03-26T06:43:28.311Z,12.44
2023-03-26T06:46:05.043Z,11.73
2023-03-26T06:48:53.516Z,12.41
2023-03-26T06:51:41.196Z,12.99
2023-03-26T06:54:08.960Z,13.08
2023-03-26T06:56:58.920Z,12.98
2023-03-26T06:59:45.407Z,12.73
2023-03-26T07:02:32.031Z,12.79
2023-03-26T07:05:18.384Z,12.83
2023-03-26T07:08:04.884Z,13.33
2023-03-26T07:10:51.167Z,13.39
2023-03-26T07:13:37.836Z,13.47
2023-03-26T07:16:28.736Z,12.49
2023-03-26T07:19:09.888Z,13.17
2023-03-26T07:21:40.693Z,13.07
2023-03-26T07:24:29.091Z,13.24
2023-03-26T07:27:20.769Z,13.71
2023-03-26T07:29:54.656Z,13.68
2023-03-26T07:32:45.288Z,13.28
2023-03-26T07:35:46.722Z,13.82
2023-03-26T07:38:47.010Z,13.32
2023-03-26T07:41:49.674Z,13.35
2023-03-26T07:44:59.958Z,14.05
2023-03-26T07:47:37.128Z,14.50
2023-03-26T07:50:23.693Z,14.91
2023-03-26T07:53:09.839Z,14.60
2023-03-26T07:56:16.027Z,15.07
2023-03-26T07:59:40.198Z,14.73
2023-03-26T08:02:34.445Z,14.63
2023-03-26T08:05:28.509Z,14.47
2023-03-26T08:08:27.223Z,13.82
2023-03-26T08:11:38.810Z,14.18
2023-03-26T08:14:24.602Z,15.18
2023-03-26T08:17:01.558Z,14.42
2023-03-26T08:20:02.207Z,14.41
2023-03-26T08:22:34.319Z,14.11
2023-03-26T08:25:29.608Z,13.76
2023-03-26T08:28:13.983Z,14.19
2023-03-26T08:30:42.208Z,13.95
2023-03-26T08:33:18.604Z,15.05
2023-03-26T08:35:46.607Z,15.25
2023-03-26T08:38:18.153Z,16.09
2023-03-26T08:41:17.050Z,15.63
2023-03-26T08:44:21.644Z,14.82
2023-03-26T08:47:10.995Z,14.85
2023-03-26T08:49:50.503Z,15.10
2023-03-26T08:52:56.840Z,15.58
2023-03-26T08:55:53.851Z,16.02
2023-03-26T08:58:40.417Z,16.41
2023-03-26T09:01:27.201Z,15.95
2023-03-26T09:04:23.028Z,16.22
2023-03-26T09:07:09.977Z,16.15
2023-03-26T09:10:23.964Z,15.90
2023-03-26T09:13:30.993Z,16.54
2023-03-26T09:16:07.897Z,16.88
2023-03-26T09:18:59.079Z,16.27
2023-03-26T09:21:43.171Z,16.15
2023-03-26T09:24:37.741Z,15.57
2023-03-26T09:27:44.482Z,16.36
2023-03-26T09:30:25.774Z,17.36
2023-03-26T09:33:22.890Z,17.65
2023-03-26T09:35:52.862Z,17.03
2023-03-26T09:38:46.111Z,15.98
2023-03-26T09:41:17.147Z,16.15
2023-03-26T09:44:09.858Z,16.71
2023-03-26T09:47:00.949Z,16.97
2023-03-26T09:49:49.934Z,16.83
2023-03-26T09:52:57.428Z,16.37
2023-03-26T09:55:32.924Z,16.47
2023-03-26T09:58:09.600Z,16.84
2023-03-26T10:01:01.159Z,16.33
2023-03-26T10:03:58.103Z,16.43
2023-03-26T10:06:50.261Z,16.95
2023-03-26T10:09:29.904Z,16.78
2023-03-26T10:12:09.939Z,16.41
2023-03-26T10:14:59.089Z,16.84
2023-03-26T10:17:42.682Z,16.75
2023-03-26T10:20:22.580Z,17.56
2023-03-26T10:22:59.011Z,17.37
2023-03-26T10:25:56.314Z,16.70
2023-03-26T10:28:48.477Z,17.41
2023-03-26T10:31:31.168Z,17.66
2023-03-26T10:34:28.091Z,16.70
2023-03-26T10:37:06.006Z,16.59
2023-03-26T10:39:43.615Z,17.62
2023-03-26T10:42:50.009Z,17.82
2023-03-26T10:45:37.146Z,17.77
2023-03-26T10:48:30.698Z,18.08
2023-03-26T10:51:16.860Z,17.43
2023-03-26T10:53:59.751Z,17.00
2023-03-26T10:56:35.473Z,17.35
2023-03-26T10:59:08.177Z,17.23
2023-03-26T11:01:44.826Z,17.65
2023-03-26T11:04:34.103Z,17.83
2023-03-26T11:07:20.471Z,17.56
2023-03-26T11:10:24.799Z,18.01
2023-03-26T11:13:07.313Z,18.17
2023-03-26T11:15:50.152Z,19.09
2023-03-26T11:18:24.258Z,18.15
2023-03-26T11:21:18.539Z,17.03
2023-03-26T11:24:39.156Z,17.36
2023-03-26T11:27:41.214Z,18.18
2023-03-26T11:30:39.776Z,18.40
2023-03-26T11:33:13.720Z,18.49
2023-03-26T11:35:44.797Z,19.27
2023-03-26T11:38:20.368Z,18.91
2023-03-26T11:40:51.099Z,18.49
2023-03-26T11:43:37.919Z,17.39
2023-03-26T11:46:08.643Z,17.75
2023-03-26T11:48:40.878Z,18.05
2023-03-26T11:51:18.638Z,17.30
2023-03-26T11:53:46.881Z,17.16
2023-03-26T11:56:29.778Z,17.81
2023-03-26T11:59:05.456Z,17.51
2023-03-26T12:01:52.584Z,17.97
2023-03-26T12:04:30.599Z,17.93
2023-03-26T12:07:14.392Z,16.59
2023-03-26T12:09:57.017Z,17.55
2023-03-26T12:12:44.870Z,16.93
2023-03-26T12:15:17.114Z,16.84
2023-03-26T12:17:45.937Z,16.72
2023-03-26T12:20:27.026Z,16.81
2023-03-26T12:22:59.542Z,16.99
2023-03-26T12:25:32.388Z,17.29
2023-03-26T12:28:13.754Z,17.55
2023-03-26T12:30:42.409Z,18.30
2023-03-26T12:33:22.215Z,18.27
2023-03-26T12:35:50.655Z,17.50
2023-03-26T12:38:25.753Z,17.67
2023-03-26T12:41:08.023Z,17.78
2023-03-26T12:44:46.165Z,16.48
2023-03-26T12:47:58.751Z,18.03
2023-03-26T12:49:22.182Z,18.26
2023-03-26T12:51:52.846Z,18.86
2023-03-26T12:54:45.651Z,18.01
2023-03-26T12:57:20.462Z,17.58
2023-03-26T13:00:09.436Z,17.31
2023-03-26T13:02:48.391Z,16.71
2023-03-26T13:05:37.587Z,18.12
2023-03-26T13:08:32.684Z,17.93
2023-03-26T13:11:25.098Z,18.08
2023-03-26T13:13:56.615Z,17.67
2023-03-26T13:16:39.572Z,17.15
2023-03-26T13:19:16.020Z,16.89
2023-03-26T13:21:47.352Z,16.85
2023-03-26T13:24:33.762Z,17.20
2023-03-26T13:27:20.522Z,17.55
2023-03-26T13:30:00.619Z,17.44
2023-03-26T13:32:36.153Z,16.75
2023-03-26T13:35:24.392Z,16.85
2023-03-26T13:38:13.475Z,16.88
2023-03-26T13:41:18.404Z,16.40
2023-03-26T13:44:01.064Z,17.37
2023-03-26T13:46:28.753Z,17.41
2023-03-26T13:49:00.159Z,17.60
2023-03-26T13:51:50.792Z,17.27
2023-03-26T13:54:24.003Z,17.49
2023-03-26T13:57:16.117Z,16.97
2023-03-26T13:59:54.373Z,16.19
2023-03-26T14:02:42.408Z,17.38
2023-03-26T14:05:21.991Z,17.46
2023-03-26T14:08:04.673Z,18.40
2023-03-26T14:10:35.721Z,18.32
2023-03-26T14:13:23.619Z,18.54
2023-03-26T14:15:55.334Z,18.66
2023-03-26T14:18:38.308Z,18.21
2023-03-26T14:21:24.397Z,17.52
2023-03-26T14:23:54.764Z,17.07
2023-03-26T14:26:37.430Z,17.14
2023-03-26T14:29:30.633Z,17.17
2023-03-26T14:32:24.792Z,18.04
2023-03-26T14:35:15.491Z,17.56
2023-03-26T14:37:43.528Z,17.28
2023-03-26T14:40:17.084Z,17.38
2023-03-26T14:43:09.757Z,17.73
2023-03-26T14:46:23.508Z,18.00
2023-03-26T14:49:09.329Z,18.47
2023-03-26T14:51:41.421Z,16.52
2023-03-26T14:54:13.945Z,16.74
2023-03-26T14:57:00.929Z,16.70
2023-03-26T14:59:47.755Z,17.70
2023-03-26T15:02:44.001Z,18.57
2023-03-26T15:05:33.107Z,17.61
2023-03-26T15:08:19.333Z,16.89
2023-03-26T15:10:49.769Z,17.66
2023-03-26T15:13:29.455Z,16.97
2023-03-26T15:16:03.094Z,16.87
2023-03-26T15:18:52.009Z,17.00
2023-03-26T15:21:50.236Z,17.21
2023-03-26T15:24:23.348Z,17.37
2023-03-26T15:27:27.359Z,17.65
2023-03-26T15:30:01.994Z,18.00
2023-03-26T15:33:05.100Z,17.58
2023-03-26T15:35:42.160Z,17.81
2023-03-26T15:38:31.114Z,17.91
2023-03-26T15:41:22.780Z,18.12
2023-03-26T15:44:23.285Z,17.95
2023-03-26T15:47:16.149Z,16.86
2023-03-26T15:49:47.984Z,16.79
2023-03-26T15:52:34.476Z,17.02
2023-03-26T15:55:17.253Z,17.21
2023-03-26T15:57:57.070Z,17.50
2023-03-26T16:00:25.988Z,17.63
2023-03-26T16:03:26.701Z,17.27
2023-03-26T16:06:03.694Z,17.37
2023-03-26T16:08:39.101Z,17.25
2023-03-26T16:11:12.628Z,17.48
2023-03-26T16:14:04.129Z,17.45
2023-03-26T16:16:56.318Z,17.44
2023-03-26T16:19:36.201Z,17.00
2023-03-26T16:22:09.747Z,17.25
2023-03-26T16:24:43.833Z,17.18
2023-03-26T16:27:15.224Z,17.11
2023-03-26T16:30:01.437Z,16.49
2023-03-26T16:32:33.438Z,16.34
2023-03-26T16:35:10.345Z,16.35
2023-03-26T16:37:43.844Z,16.54
2023-03-26T16:40:23.533Z,16.40
2023-03-26T16:43:29.792Z,16.19
2023-03-26T16:46:27.033Z,16.22
2023-03-26T16:49:00.489Z,16.15
2023-03-26T16:52:02.416Z,16.02
2023-03-26T16:54:54.241Z,15.79
2023-03-26T16:57:27.916Z,15.82
2023-03-26T17:00:16.429Z,15.31
2023-03-26T17:02:59.918Z,15.44
2023-03-26T17:05:36.715Z,15.52
2023-03-26T17:08:19.094Z,15.41
2023-03-26T17:11:07.906Z,14.77
2023-03-26T17:14:08.742Z,15.14
2023-03-26T17:16:41.169Z,14.59
2023-03-26T17:19:28.121Z,14.42
2023-03-26T17:22:13.881Z,13.78
2023-03-26T17:24:44.605Z,13.66
2023-03-26T17:28:06.274Z,13.77
2023-03-26T17:30:46.194Z,14.19
2023-03-26T17:33:26.802Z,13.80
2023-03-26T17:36:12.647Z,13.90
2023-03-26T17:38:40.325Z,13.78
2023-03-26T17:41:15.881Z,13.21
2023-03-26T17:43:52.319Z,13.33
2023-03-26T17:46:34.015Z,13.17
2023-03-26T17:49:18.944Z,12.71
2023-03-26T17:51:47.978Z,12.08
2023-03-26T17:54:24.469Z,12.23
2023-03-26T17:56:52.711Z,11.86
2023-03-26T17:59:23.586Z,11.73
2023-03-26T18:01:55.395Z,11.58
2023-03-26T18:04:31.199Z,11.35
2023-03-26T18:07:15.364Z,11.55
2023-03-26T18:10:10.918Z,10.82
2023-03-26T18:13:00.980Z,10.79
2023-03-26T18:15:53.109Z,10.37
2023-03-26T18:18:24.831Z,9.90
2023-03-26T18:20:54.710Z,10.30
2023-03-26T18:23:25.236Z,10.40
2023-03-26T18:25:58.431Z,10.56
2023-03-26T18:28:31.173Z,10.66
2023-03-26T18:31:08.427Z,10.73
2023-03-26T18:33:43.784Z,10.40
2023-03-26T18:36:11.692Z,10.86
2023-03-26T18:38:41.134Z,10.10
2023-03-26T18:41:30.392Z,10.26
2023-03-26T18:44:05.327Z,10.79
2023-03-26T18:46:33.583Z,11.10
2023-03-26T18:49:02.821Z,10.77
2023-03-26T18:51:31.855Z,10.37
2023-03-26T18:54:00.759Z,10.41
2023-03-26T18:56:39.693Z,10.30
2023-03-26T18:59:28.901Z,10.97
2023-03-26T19:01:57.728Z,10.58
2023-03-26T19:04:26.206Z,10.46
2023-03-26T19:06:54.831Z,10.46
2023-03-26T19:09:31.128Z,10.39
2023-03-26T19:12:22.883Z,9.83
2023-03-26T19:15:16.040Z,10.57
2023-03-26T19:17:48.456Z,10.29
2023-03-26T19:20:21.697Z,10.42
2023-03-26T19:22:49.469Z,10.74
2023-03-26T19:25:36.077Z,11.33
2023-03-26T19:28:03.988Z,11.34
2023-03-26T19:30:35.535Z,11.36
2023-03-26T19:33:13.883Z,11.55
2023-03-26T19:35:42.762Z,11.60
2023-03-26T19:38:29.526Z,11.80
2023-03-26T19:40:57.802Z,11.60
2023-03-26T19:43:26.268Z,11.79
2023-03-26T19:45:59.606Z,11.45
2023-03-26T19:48:45.371Z,11.39
2023-03-26T19:51:34.907Z,11.45
2023-03-26T19:54:04.756Z,10.86
2023-03-26T19:56:33.752Z,11.02
2023-03-26T19:59:02.255Z,11.25
2023-03-26T20:01:30.141Z,11.37
2023-03-26T20:04:00.773Z,11.30
2023-03-26T20:06:42.534Z,11.35
2023-03-26T20:09:12.625Z,11.16
2023-03-26T20:11:40.958Z,11.16
2023-03-26T20:14:16.497Z,11.12
2023-03-26T20:16:45.305Z,11.04
2023-03-26T20:19:14.677Z,10.71
2023-03-26T20:21:59.343Z,10.44
2023-03-26T20:24:32.668Z,9.99
2023-03-26T20:27:00.426Z,10.56
2023-03-26T20:29:28.662Z,10.27
2023-03-26T20:31:56.428Z,10.63
2023-03-26T20:34:24.385Z,10.49
2023-03-26T20:36:54.306Z,9.47
2023-03-26T20:39:23.016Z,9.94
2023-03-26T20:41:51.191Z,10.02
2023-03-26T20:44:20.046Z,9.71
2023-03-26T20:46:48.765Z,9.86
2023-03-26T20:49:17.815Z,9.95
2023-03-26T20:51:46.637Z,9.63
2023-03-26T20:54:23.889Z,9.64
2023-03-26T20:56:53.475Z,9.30
2023-03-26T20:59:26.668Z,9.35
2023-03-26T21:01:56.630Z,8.91
2023-03-26T21:04:24.969Z,8.97
2023-03-26T21:06:57.554Z,9.71
2023-03-26T21:09:35.446Z,8.69
2023-03-26T21:12:16.831Z,9.25
2023-03-26T21:14:44.803Z,9.36
2023-03-26T21:17:17.973Z,8.43
2023-03-26T21:19:46.267Z,8.29
2023-03-26T21:22:56.347Z,8.56
2023-03-26T21:25:54.269Z,8.21
2023-03-26T21:29:00.966Z,8.02
2023-03-26T21:31:31.473Z,8.11
2023-03-26T21:33:59.609Z,7.79
2023-03-26T21:36:28.182Z,7.71
2023-03-26T21:38:56.174Z,7.76
2023-03-26T21:41:23.806Z,7.28
2023-03-26T21:43:51.651Z,8.01
2023-03-26T21:46:19.953Z,7.63
2023-03-26T21:48:48.042Z,7.24
2023-03-26T21:51:19.240Z,7.19
2023-03-26T21:53:47.241Z,6.91
2023-03-26T21:56:47.379Z,7.47
2023-03-26T21:59:30.494Z,6.75
2023-03-26T22:02:09.443Z,6.45
2023-03-26T22:04:53.983Z,6.88
2023-03-26T22:07:25.950Z,7.46
2023-03-26T22:09:53.964Z,7.47
2023-03-26T22:12:22.179Z,6.90
2023-03-26T22:14:49.853Z,7.53
2023-03-26T22:17:17.668Z,7.88
2023-03-26T22:19:45.408Z,7.91
2023-03-26T22:22:13.097Z,7.89
2023-03-26T22:24:40.793Z,7.60
2023-03-26T22:27:08.723Z,7.58
2023-03-26T22:29:36.530Z,7.40
2023-03-26T22:32:04.366Z,6.37
2023-03-26T22:34:35.310Z,7.20
2023-03-26T22:37:05.369Z,7.53
2023-03-26T22:39:33.089Z,7.61
2023-03-26T22:42:02.623Z,6.69
2023-03-26T22:44:31.271Z,7.24
2023-03-26T22:46:58.951Z,6.46
2023-03-26T22:49:27.509Z,7.02
2023-03-26T22:51:55.213Z,6.93
2023-03-26T22:54:22.957Z,6.72
2023-03-26T22:56:52.240Z,7.03
2023-03-26T22:59:20.053Z,7.07
2023-03-26T23:01:47.774Z,7.46
2023-03-26T23:04:31.463Z,7.19
2023-03-26T23:07:00.286Z,7.29
2023-03-26T23:09:28.065Z,7.29
2023-03-26T23:11:56.546Z,6.82
2023-03-26T23:14:24.268Z,6.72
2023-03-26T23:16:52.069Z,6.95
2023-03-26T23:19:19.955Z,7.06
2023-03-26T23:21:47.700Z,6.06
2023-03-26T23:24:15.760Z,6.52
2023-03-26T23:26:50.579Z,6.62
2023-03-26T23:29:19.097Z,5.88
2023-03-26T23:31:47.047Z,5.55
2023-03-26T23:34:16.338Z,5.92
2023-03-26T23:36:44.910Z,5.47
2023-03-26T23:39:13.020Z,5.63
2023-03-26T23:41:40.721Z,6.15
2023-03-26T23:44:13.484Z,6.33
2023-03-26T23:46:44.215Z,6.29
2023-03-26T23:49:12.188Z,5.74
2023-03-26T23:51:39.878Z,6.11
2023-03-26T23:54:08.744Z,6.47
2023-03-26T23:56:36.673Z,6.50
2023-03-26T23:59:04.942Z,6.77
